sensor_id;sensor_type;location;lat;lon;timestamp;pressure;altitude;pressure_sealevel;temperature;humidity
41513;BME280;27244;59.940;30.280;2023-08-17T00:01:41;101664.41;;;25.99;53.31
41513;BME280;27244;59.940;30.280;2023-08-17T00:04:08;101659.97;;;25.98;53.23
41513;BME280;27244;59.940;30.280;2023-08-17T00:06:37;101653.66;;;25.93;53.32
41513;BME280;27244;59.940;30.280;2023-08-17T00:09:04;101676.59;;;25.95;53.61
41513;BME280;27244;59.940;30.280;2023-08-17T00:11:32;101703.28;;;25.94;53.25
41513;BME280;27244;59.940;30.280;2023-08-17T00:14:00;101684.81;;;25.90;53.60
41513;BME280;27244;59.940;30.280;2023-08-17T00:16:27;101655.38;;;25.87;53.20
41513;BME280;27244;59.940;30.280;2023-08-17T00:18:54;101665.38;;;25.92;53.17
41513;BME280;27244;59.940;30.280;2023-08-17T00:21:22;101673.34;;;25.97;53.24
41513;BME280;27244;59.940;30.280;2023-08-17T00:23:49;101673.44;;;25.93;53.23
41513;BME280;27244;59.940;30.280;2023-08-17T00:26:17;101677.75;;;25.98;53.00
41513;BME280;27244;59.940;30.280;2023-08-17T00:28:48;101679.78;;;25.98;53.08
41513;BME280;27244;59.940;30.280;2023-08-17T00:31:17;101681.75;;;26.01;52.73
41513;BME280;27244;59.940;30.280;2023-08-17T00:33:44;101683.41;;;25.98;52.96
41513;BME280;27244;59.940;30.280;2023-08-17T00:36:11;101674.66;;;25.92;53.14
41513;BME280;27244;59.940;30.280;2023-08-17T00:38:38;101659.16;;;25.81;52.92
41513;BME280;27244;59.940;30.280;2023-08-17T00:41:05;101660.31;;;25.83;53.14
41513;BME280;27244;59.940;30.280;2023-08-17T00:43:32;101685.59;;;25.90;53.36
41513;BME280;27244;59.940;30.280;2023-08-17T00:45:59;101683.47;;;25.94;53.34
41513;BME280;27244;59.940;30.280;2023-08-17T00:48:28;101654.81;;;25.76;53.36
41513;BME280;27244;59.940;30.280;2023-08-17T00:50:57;101680.72;;;25.91;53.28
41513;BME280;27244;59.940;30.280;2023-08-17T00:53:27;101812.81;;;25.90;53.67
41513;BME280;27244;59.940;30.280;2023-08-17T00:55:54;101834.19;;;25.91;53.49
41513;BME280;27244;59.940;30.280;2023-08-17T00:58:26;101790.19;;;25.90;53.94
41513;BME280;27244;59.940;30.280;2023-08-17T01:00:54;101821.28;;;25.90;53.79
41513;BME280;27244;59.940;30.280;2023-08-17T01:03:22;101806.78;;;25.88;53.71
41513;BME280;27244;59.940;30.280;2023-08-17T01:05:51;101800.34;;;25.88;53.81
41513;BME280;27244;59.940;30.280;2023-08-17T01:08:18;101785.56;;;25.80;53.75
41513;BME280;27244;59.940;30.280;2023-08-17T01:11:02;101805.13;;;25.91;53.85
41513;BME280;27244;59.940;30.280;2023-08-17T01:13:40;101792.25;;;25.90;54.02
41513;BME280;27244;59.940;30.280;2023-08-17T01:16:12;101795.00;;;25.93;53.92
41513;BME280;27244;59.940;30.280;2023-08-17T01:18:42;101790.63;;;25.89;53.87
41513;BME280;27244;59.940;30.280;2023-08-17T01:21:16;101776.13;;;25.87;54.02
41513;BME280;27244;59.940;30.280;2023-08-17T01:23:46;101788.63;;;25.89;54.23
41513;BME280;27244;59.940;30.280;2023-08-17T01:26:14;101782.00;;;25.76;54.19
41513;BME280;27244;59.940;30.280;2023-08-17T01:28:42;101780.19;;;25.86;54.16
41513;BME280;27244;59.940;30.280;2023-08-17T01:31:16;101773.22;;;25.90;53.97
41513;BME280;27244;59.940;30.280;2023-08-17T01:33:49;101773.22;;;25.90;54.09
41513;BME280;27244;59.940;30.280;2023-08-17T01:36:22;101770.41;;;25.90;54.35
41513;BME280;27244;59.940;30.280;2023-08-17T01:38:53;101773.59;;;25.92;54.26
41513;BME280;27244;59.940;30.280;2023-08-17T01:41:23;101793.09;;;25.87;54.15
41513;BME280;27244;59.940;30.280;2023-08-17T01:43:53;101786.06;;;25.75;54.31
41513;BME280;27244;59.940;30.280;2023-08-17T01:46:21;101794.69;;;25.88;54.35
41513;BME280;27244;59.940;30.280;2023-08-17T01:48:48;101789.50;;;25.86;54.21
41513;BME280;27244;59.940;30.280;2023-08-17T01:51:18;101785.19;;;25.78;54.09
41513;BME280;27244;59.940;30.280;2023-08-17T01:53:45;101772.38;;;25.74;54.39
41513;BME280;27244;59.940;30.280;2023-08-17T01:56:14;101791.88;;;25.88;54.14
41513;BME280;27244;59.940;30.280;2023-08-17T01:58:41;101782.72;;;25.80;54.35
41513;BME280;27244;59.940;30.280;2023-08-17T02:01:08;101789.09;;;25.84;54.09
41513;BME280;27244;59.940;30.280;2023-08-17T02:03:35;101780.19;;;25.86;54.68
41513;BME280;27244;59.940;30.280;2023-08-17T02:06:03;101764.16;;;25.79;54.85
41513;BME280;27244;59.940;30.280;2023-08-17T02:08:30;101759.69;;;25.82;54.39
41513;BME280;27244;59.940;30.280;2023-08-17T02:10:57;101764.16;;;25.79;54.36
41513;BME280;27244;59.940;30.280;2023-08-17T02:13:26;101776.50;;;25.89;54.68
41513;BME280;27244;59.940;30.280;2023-08-17T02:15:54;101766.41;;;25.88;53.88
41513;BME280;27244;59.940;30.280;2023-08-17T02:18:21;101770.84;;;25.89;54.40
41513;BME280;27244;59.940;30.280;2023-08-17T02:20:49;101769.31;;;25.84;54.49
41513;BME280;27244;59.940;30.280;2023-08-17T02:23:16;101757.59;;;25.86;54.35
41513;BME280;27244;59.940;30.280;2023-08-17T02:25:44;101767.56;;;25.90;54.21
41513;BME280;27244;59.940;30.280;2023-08-17T02:28:12;101761.91;;;25.90;54.54
41513;BME280;27244;59.940;30.280;2023-08-17T02:30:41;101765.19;;;25.89;54.52
41513;BME280;27244;59.940;30.280;2023-08-17T02:33:08;101768.81;;;25.89;54.75
41513;BME280;27244;59.940;30.280;2023-08-17T02:35:35;101758.75;;;25.88;54.46
41513;BME280;27244;59.940;30.280;2023-08-17T02:38:02;101748.81;;;25.80;54.51
41513;BME280;27244;59.940;30.280;2023-08-17T02:40:30;101756.47;;;25.80;54.72
41513;BME280;27244;59.940;30.280;2023-08-17T02:42:57;101764.41;;;25.88;54.75
41513;BME280;27244;59.940;30.280;2023-08-17T02:45:24;101768.44;;;25.87;54.51
41513;BME280;27244;59.940;30.280;2023-08-17T02:47:52;101764.03;;;25.86;54.27
41513;BME280;27244;59.940;30.280;2023-08-17T02:50:20;101757.59;;;25.86;54.69
41513;BME280;27244;59.940;30.280;2023-08-17T02:52:47;101760.84;;;25.84;54.88
41513;BME280;27244;59.940;30.280;2023-08-17T02:55:14;101749.91;;;25.86;54.71
41513;BME280;27244;59.940;30.280;2023-08-17T02:57:41;101743.16;;;25.80;54.75
41513;BME280;27244;59.940;30.280;2023-08-17T03:00:09;101733.06;;;25.79;54.78
41513;BME280;27244;59.940;30.280;2023-08-17T03:02:36;101751.94;;;25.86;54.82
41513;BME280;27244;59.940;30.280;2023-08-17T03:05:05;101734.69;;;25.80;54.63
41513;BME280;27244;59.940;30.280;2023-08-17T03:07:32;101722.94;;;25.82;54.91
41513;BME280;27244;59.940;30.280;2023-08-17T03:09:59;101726.66;;;25.79;54.77
41513;BME280;27244;59.940;30.280;2023-08-17T03:12:26;101736.28;;;25.81;54.75
41513;BME280;27244;59.940;30.280;2023-08-17T03:14:53;101744.69;;;25.85;54.97
41513;BME280;27244;59.940;30.280;2023-08-17T03:17:21;101732.78;;;25.74;54.94
41513;BME280;27244;59.940;30.280;2023-08-17T03:19:48;101749.91;;;25.86;54.60
41513;BME280;27244;59.940;30.280;2023-08-17T03:22:17;101753.50;;;25.87;55.01
41513;BME280;27244;59.940;30.280;2023-08-17T03:24:44;101764.03;;;25.86;55.13
41513;BME280;27244;59.940;30.280;2023-08-17T03:27:11;101762.53;;;25.82;54.83
41513;BME280;27244;59.940;30.280;2023-08-17T03:29:38;101771.72;;;25.86;55.00
41513;BME280;27244;59.940;30.280;2023-08-17T03:32:06;101760.09;;;25.80;54.81
41513;BME280;27244;59.940;30.280;2023-08-17T03:34:33;101756.88;;;25.82;54.82
41513;BME280;27244;59.940;30.280;2023-08-17T03:37:01;101756.41;;;25.83;54.92
41513;BME280;27244;59.940;30.280;2023-08-17T03:39:30;101763.38;;;25.79;54.47
41513;BME280;27244;59.940;30.280;2023-08-17T03:41:57;101760.97;;;25.77;55.00
41513;BME280;27244;59.940;30.280;2023-08-17T03:44:25;101777.81;;;25.84;54.75
41513;BME280;27244;59.940;30.280;2023-08-17T03:46:52;101762.22;;;25.76;54.88
41513;BME280;27244;59.940;30.280;2023-08-17T03:49:19;101768.66;;;25.77;54.82
41513;BME280;27244;59.940;30.280;2023-08-17T03:51:46;101767.50;;;25.74;54.81
41513;BME280;27244;59.940;30.280;2023-08-17T03:54:13;101786.28;;;25.84;54.62
41513;BME280;27244;59.940;30.280;2023-08-17T03:56:42;101786.28;;;25.84;54.59
41513;BME280;27244;59.940;30.280;2023-08-17T03:59:09;101789.53;;;25.83;54.91
41513;BME280;27244;59.940;30.280;2023-08-17T04:01:36;101788.38;;;25.80;54.86
41513;BME280;27244;59.940;30.280;2023-08-17T04:04:03;101788.91;;;25.75;55.09
41513;BME280;27244;59.940;30.280;2023-08-17T04:06:30;101802.88;;;25.82;54.47
41513;BME280;27244;59.940;30.280;2023-08-17T04:08:58;101804.91;;;25.82;54.70
41513;BME280;27244;59.940;30.280;2023-08-17T04:11:26;101809.31;;;25.83;55.02
41513;BME280;27244;59.940;30.280;2023-08-17T04:13:54;101793.38;;;25.73;54.88
41513;BME280;27244;59.940;30.280;2023-08-17T04:16:21;101803.66;;;25.83;55.09
41513;BME280;27244;59.940;30.280;2023-08-17T04:18:49;101802.09;;;25.82;54.90
41513;BME280;27244;59.940;30.280;2023-08-17T04:21:16;101808.97;;;25.81;54.66
41513;BME280;27244;59.940;30.280;2023-08-17T04:23:43;101812.59;;;25.81;55.24
41513;BME280;27244;59.940;30.280;2023-08-17T04:26:10;101812.59;;;25.81;55.13
41513;BME280;27244;59.940;30.280;2023-08-17T04:28:37;101824.78;;;25.78;54.85
41513;BME280;27244;59.940;30.280;2023-08-17T04:31:06;101824.03;;;25.74;54.82
41513;BME280;27244;59.940;30.280;2023-08-17T04:33:37;101824.09;;;25.71;54.73
41513;BME280;27244;59.940;30.280;2023-08-17T04:36:04;101825.94;;;25.81;55.03
41513;BME280;27244;59.940;30.280;2023-08-17T04:38:31;101803.09;;;25.72;54.96
41513;BME280;27244;59.940;30.280;2023-08-17T04:40:58;101819.03;;;25.82;54.54
41513;BME280;27244;59.940;30.280;2023-08-17T04:43:25;101811.13;;;25.73;54.84
41513;BME280;27244;59.940;30.280;2023-08-17T04:45:53;101833.19;;;25.82;54.65
41513;BME280;27244;59.940;30.280;2023-08-17T04:48:21;101823.53;;;25.79;54.79
41513;BME280;27244;59.940;30.280;2023-08-17T04:50:52;101827.88;;;25.84;54.91
41513;BME280;27244;59.940;30.280;2023-08-17T04:53:19;101837.22;;;25.81;54.89
41513;BME280;27244;59.940;30.280;2023-08-17T04:55:46;101827.94;;;25.80;54.93
41513;BME280;27244;59.940;30.280;2023-08-17T04:58:13;101819.59;;;25.73;54.96
41513;BME280;27244;59.940;30.280;2023-08-17T05:00:40;101832.00;;;25.79;54.80
41513;BME280;27244;59.940;30.280;2023-08-17T05:03:07;101832.88;;;25.76;54.88
41513;BME280;27244;59.940;30.280;2023-08-17T05:05:40;101822.44;;;25.73;54.86
41513;BME280;27244;59.940;30.280;2023-08-17T05:08:10;101833.59;;;25.80;54.65
41513;BME280;27244;59.940;30.280;2023-08-17T05:10:37;101840.06;;;25.81;54.67
41513;BME280;27244;59.940;30.280;2023-08-17T05:13:04;101840.06;;;25.81;54.89
41513;BME280;27244;59.940;30.280;2023-08-17T05:15:31;101839.25;;;25.80;55.19
41513;BME280;27244;59.940;30.280;2023-08-17T05:18:01;101836.06;;;25.78;54.94
41513;BME280;27244;59.940;30.280;2023-08-17T05:20:28;101832.19;;;25.69;54.61
41513;BME280;27244;59.940;30.280;2023-08-17T05:22:57;101854.19;;;25.81;54.99
41513;BME280;27244;59.940;30.280;2023-08-17T05:25:27;101859.78;;;25.84;55.02
41513;BME280;27244;59.940;30.280;2023-08-17T05:27:55;101856.28;;;25.77;55.03
41513;BME280;27244;59.940;30.280;2023-08-17T05:30:22;101861.06;;;25.80;54.91
41513;BME280;27244;59.940;30.280;2023-08-17T05:32:49;101861.88;;;25.80;54.70
41513;BME280;27244;59.940;30.280;2023-08-17T05:35:16;101859.50;;;25.79;54.65
41513;BME280;27244;59.940;30.280;2023-08-17T05:37:43;101844.38;;;25.66;54.68
41513;BME280;27244;59.940;30.280;2023-08-17T05:40:12;101870.72;;;25.82;54.70
41513;BME280;27244;59.940;30.280;2023-08-17T05:42:40;101858.25;;;25.80;55.06
41513;BME280;27244;59.940;30.280;2023-08-17T05:45:08;101847.13;;;25.69;54.85
41513;BME280;27244;59.940;30.280;2023-08-17T05:47:36;101866.72;;;25.80;54.97
41513;BME280;27244;59.940;30.280;2023-08-17T05:50:03;101870.00;;;25.78;54.72
41513;BME280;27244;59.940;30.280;2023-08-17T05:52:31;101856.06;;;25.68;54.79
41513;BME280;27244;59.940;30.280;2023-08-17T05:54:59;101873.19;;;25.80;55.07
41513;BME280;27244;59.940;30.280;2023-08-17T05:57:27;101881.22;;;25.82;54.57
41513;BME280;27244;59.940;30.280;2023-08-17T05:59:54;101876.44;;;25.79;54.90
41513;BME280;27244;59.940;30.280;2023-08-17T06:02:21;101883.25;;;25.81;55.04
41513;BME280;27244;59.940;30.280;2023-08-17T06:04:49;101878.97;;;25.73;54.96
41513;BME280;27244;59.940;30.280;2023-08-17T06:07:16;101883.25;;;25.81;54.82
41513;BME280;27244;59.940;30.280;2023-08-17T06:09:43;101890.94;;;25.81;55.03
41513;BME280;27244;59.940;30.280;2023-08-17T06:12:10;101871.34;;;25.70;54.72
41513;BME280;27244;59.940;30.280;2023-08-17T06:14:38;101877.34;;;25.72;54.91
41513;BME280;27244;59.940;30.280;2023-08-17T06:17:06;101894.97;;;25.80;54.90
41513;BME280;27244;59.940;30.280;2023-08-17T06:19:33;101900.63;;;25.80;54.65
41513;BME280;27244;59.940;30.280;2023-08-17T06:22:00;101891.81;;;25.78;55.14
41513;BME280;27244;59.940;30.280;2023-08-17T06:24:27;101895.78;;;25.80;54.99
41513;BME280;27244;59.940;30.280;2023-08-17T06:26:54;101902.25;;;25.81;55.25
41513;BME280;27244;59.940;30.280;2023-08-17T06:29:21;101899.19;;;25.72;54.85
41513;BME280;27244;59.940;30.280;2023-08-17T06:31:50;101900.34;;;25.74;54.91
41513;BME280;27244;59.940;30.280;2023-08-17T06:34:17;101902.25;;;25.81;54.85
41513;BME280;27244;59.940;30.280;2023-08-17T06:36:56;101877.75;;;25.74;54.62
41513;BME280;27244;59.940;30.280;2023-08-17T06:39:24;101906.75;;;25.78;55.18
41513;BME280;27244;59.940;30.280;2023-08-17T06:41:51;101907.53;;;25.79;54.74
41513;BME280;27244;59.940;30.280;2023-08-17T06:44:18;101894.75;;;25.71;54.72
41513;BME280;27244;59.940;30.280;2023-08-17T06:46:45;101915.56;;;25.80;55.87
41513;BME280;27244;59.940;30.280;2023-08-17T06:49:14;101883.13;;;25.65;55.61
41513;BME280;27244;59.940;30.280;2023-08-17T06:51:41;101913.97;;;25.79;55.20
41513;BME280;27244;59.940;30.280;2023-08-17T06:54:08;101915.16;;;25.82;54.84
41513;BME280;27244;59.940;30.280;2023-08-17T06:56:36;101908.69;;;25.81;54.82
41513;BME280;27244;59.940;30.280;2023-08-17T06:59:03;101917.19;;;25.81;54.62
41513;BME280;27244;59.940;30.280;2023-08-17T07:01:30;101900.09;;;25.65;55.21
41513;BME280;27244;59.940;30.280;2023-08-17T07:03:57;101930.09;;;25.82;54.57
41513;BME280;27244;59.940;30.280;2023-08-17T07:06:26;101915.34;;;25.71;55.02
41513;BME280;27244;59.940;30.280;2023-08-17T07:08:54;101906.53;;;25.66;55.38
41513;BME280;27244;59.940;30.280;2023-08-17T07:11:22;101940.53;;;25.85;54.82
41513;BME280;27244;59.940;30.280;2023-08-17T07:13:49;101939.31;;;25.86;54.54
41513;BME280;27244;59.940;30.280;2023-08-17T07:16:16;101926.13;;;25.76;54.53
41513;BME280;27244;59.940;30.280;2023-08-17T07:18:45;101936.41;;;25.90;54.45
41513;BME280;27244;59.940;30.280;2023-08-17T07:21:12;101938.38;;;25.93;54.34
41513;BME280;27244;59.940;30.280;2023-08-17T07:23:45;101929.91;;;25.93;54.92
41513;BME280;27244;59.940;30.280;2023-08-17T07:26:12;101943.59;;;25.94;55.02
41513;BME280;27244;59.940;30.280;2023-08-17T07:28:39;101947.16;;;25.99;54.93
41513;BME280;27244;59.940;30.280;2023-08-17T07:31:07;101955.28;;;25.97;55.70
41513;BME280;27244;59.940;30.280;2023-08-17T07:33:34;101947.66;;;25.93;54.77
41513;BME280;27244;59.940;30.280;2023-08-17T07:36:01;101942.00;;;25.93;55.05
41513;BME280;27244;59.940;30.280;2023-08-17T07:38:28;101952.44;;;25.97;55.02
41513;BME280;27244;59.940;30.280;2023-08-17T07:40:57;101932.91;;;25.82;55.29
41513;BME280;27244;59.940;30.280;2023-08-17T07:43:24;101961.28;;;25.99;55.17
41513;BME280;27244;59.940;30.280;2023-08-17T07:45:54;101963.63;;;26.04;55.39
41513;BME280;27244;59.940;30.280;2023-08-17T07:48:22;101968.91;;;26.02;55.38
41513;BME280;27244;59.940;30.280;2023-08-17T07:50:49;101963.75;;;25.97;55.65
41513;BME280;27244;59.940;30.280;2023-08-17T07:53:17;101954.59;;;25.89;55.59
41513;BME280;27244;59.940;30.280;2023-08-17T07:55:44;101972.09;;;26.04;55.69
41513;BME280;27244;59.940;30.280;2023-08-17T07:58:13;101975.75;;;26.04;55.34
41513;BME280;27244;59.940;30.280;2023-08-17T08:00:40;101976.97;;;26.03;55.73
41513;BME280;27244;59.940;30.280;2023-08-17T08:03:07;101977.75;;;26.04;55.99
41513;BME280;27244;59.940;30.280;2023-08-17T08:05:35;101977.75;;;26.04;55.92
41513;BME280;27244;59.940;30.280;2023-08-17T08:08:02;101957.84;;;25.87;56.02
41513;BME280;27244;59.940;30.280;2023-08-17T08:10:29;101984.28;;;26.01;55.61
41513;BME280;27244;59.940;30.280;2023-08-17T08:12:56;101962.28;;;25.88;56.19
41513;BME280;27244;59.940;30.280;2023-08-17T08:15:25;101977.09;;;25.96;56.19
41513;BME280;27244;59.940;30.280;2023-08-17T08:17:52;101972.25;;;25.97;56.41
41513;BME280;27244;59.940;30.280;2023-08-17T08:20:20;101969.16;;;25.87;56.49
41513;BME280;27244;59.940;30.280;2023-08-17T08:22:47;101983.91;;;25.99;56.96
41513;BME280;27244;59.940;30.280;2023-08-17T08:25:14;101965.78;;;25.96;57.25
41513;BME280;27244;59.940;30.280;2023-08-17T08:27:41;101983.84;;;26.02;56.76
41513;BME280;27244;59.940;30.280;2023-08-17T08:30:09;101979.53;;;25.94;56.71
41513;BME280;27244;59.940;30.280;2023-08-17T08:32:37;101984.72;;;25.99;55.95
41513;BME280;27244;59.940;30.280;2023-08-17T08:35:05;101986.66;;;26.02;56.19
41513;BME280;27244;59.940;30.280;2023-08-17T08:37:32;101977.03;;;26.00;56.37
41513;BME280;27244;59.940;30.280;2023-08-17T08:39:59;101971.50;;;25.92;56.18
41513;BME280;27244;59.940;30.280;2023-08-17T08:42:27;101980.22;;;26.02;56.06
41513;BME280;27244;59.940;30.280;2023-08-17T08:44:54;101973.09;;;25.93;55.95
41513;BME280;27244;59.940;30.280;2023-08-17T08:47:22;101980.59;;;26.04;56.37
41513;BME280;27244;59.940;30.280;2023-08-17T08:49:58;101995.81;;;26.10;55.98
41513;BME280;27244;59.940;30.280;2023-08-17T08:52:32;101999.06;;;26.08;56.08
41513;BME280;27244;59.940;30.280;2023-08-17T08:55:05;101984.78;;;25.95;56.00
41513;BME280;27244;59.940;30.280;2023-08-17T08:57:35;101987.19;;;25.97;56.04
41513;BME280;27244;59.940;30.280;2023-08-17T09:00:03;101986.06;;;25.91;55.65
41513;BME280;27244;59.940;30.280;2023-08-17T09:02:32;101997.63;;;26.00;56.42
41513;BME280;27244;59.940;30.280;2023-08-17T09:05:02;101993.94;;;26.03;56.22
41513;BME280;27244;59.940;30.280;2023-08-17T09:07:29;102007.63;;;26.05;56.39
41513;BME280;27244;59.940;30.280;2023-08-17T09:09:57;101997.63;;;26.00;56.91
41513;BME280;27244;59.940;30.280;2023-08-17T09:12:24;102013.72;;;26.03;56.63
41513;BME280;27244;59.940;30.280;2023-08-17T09:14:52;102006.03;;;26.04;57.09
41513;BME280;27244;59.940;30.280;2023-08-17T09:17:23;102014.47;;;26.07;56.32
41513;BME280;27244;59.940;30.280;2023-08-17T09:19:50;102006.91;;;26.01;56.60
41513;BME280;27244;59.940;30.280;2023-08-17T09:22:23;102020.84;;;26.11;56.85
41513;BME280;27244;59.940;30.280;2023-08-17T09:24:51;102014.53;;;26.04;57.03
41513;BME280;27244;59.940;30.280;2023-08-17T09:27:18;102011.69;;;26.04;56.83
41513;BME280;27244;59.940;30.280;2023-08-17T09:29:45;102018.94;;;26.05;56.44
41513;BME280;27244;59.940;30.280;2023-08-17T09:32:14;102004.44;;;26.03;57.09
41513;BME280;27244;59.940;30.280;2023-08-17T09:34:43;102020.13;;;26.07;57.13
41513;BME280;27244;59.940;30.280;2023-08-17T09:37:12;102020.91;;;26.08;56.93
41513;BME280;27244;59.940;30.280;2023-08-17T09:39:40;102025.78;;;26.07;57.36
41513;BME280;27244;59.940;30.280;2023-08-17T09:42:07;102013.28;;;26.05;57.04
41513;BME280;27244;59.940;30.280;2023-08-17T09:44:37;102025.31;;;26.09;57.01
41513;BME280;27244;59.940;30.280;2023-08-17T09:47:05;102015.44;;;25.97;57.03
41513;BME280;27244;59.940;30.280;2023-08-17T09:49:32;102018.63;;;25.99;56.93
41513;BME280;27244;59.940;30.280;2023-08-17T09:52:00;102033.81;;;26.09;56.89
41513;BME280;27244;59.940;30.280;2023-08-17T09:54:30;102037.81;;;26.11;56.86
41513;BME280;27244;59.940;30.280;2023-08-17T09:56:59;102049.56;;;26.10;56.49
41513;BME280;27244;59.940;30.280;2023-08-17T09:59:27;102028.28;;;26.02;56.67
41513;BME280;27244;59.940;30.280;2023-08-17T10:01:54;102050.41;;;26.07;56.67
41513;BME280;27244;59.940;30.280;2023-08-17T10:04:23;102037.22;;;26.00;56.45
41513;BME280;27244;59.940;30.280;2023-08-17T10:06:52;102040.03;;;26.00;56.43
41513;BME280;27244;59.940;30.280;2023-08-17T10:09:24;102044.44;;;26.01;56.45
41513;BME280;27244;59.940;30.280;2023-08-17T10:11:55;102043.91;;;26.10;56.37
41513;BME280;27244;59.940;30.280;2023-08-17T10:14:29;102053.13;;;26.14;56.21
41513;BME280;27244;59.940;30.280;2023-08-17T10:17:01;102048.41;;;26.07;56.44
41513;BME280;27244;59.940;30.280;2023-08-17T10:19:36;102042.81;;;26.04;56.37
41513;BME280;27244;59.940;30.280;2023-08-17T10:22:15;102035.47;;;26.06;56.43
41513;BME280;27244;59.940;30.280;2023-08-17T10:24:44;102054.41;;;26.09;56.28
41513;BME280;27244;59.940;30.280;2023-08-17T10:27:13;102052.38;;;26.10;56.20
41513;BME280;27244;59.940;30.280;2023-08-17T10:29:43;102056.81;;;26.11;56.30
41513;BME280;27244;59.940;30.280;2023-08-17T10:32:11;102041.25;;;25.99;56.42
41513;BME280;27244;59.940;30.280;2023-08-17T10:34:39;102047.16;;;26.08;56.18
41513;BME280;27244;59.940;30.280;2023-08-17T10:37:06;102035.25;;;25.97;56.42
41513;BME280;27244;59.940;30.280;2023-08-17T10:39:34;102041.25;;;25.99;56.30
41513;BME280;27244;59.940;30.280;2023-08-17T10:42:05;102039.97;;;26.04;56.22
41513;BME280;27244;59.940;30.280;2023-08-17T10:44:43;102033.75;;;26.12;56.34
41513;BME280;27244;59.940;30.280;2023-08-17T10:47:21;102036.56;;;26.12;56.42
41513;BME280;27244;59.940;30.280;2023-08-17T10:49:50;102041.06;;;26.10;56.32
41513;BME280;27244;59.940;30.280;2023-08-17T10:52:26;102030.97;;;26.09;56.27
41513;BME280;27244;59.940;30.280;2023-08-17T10:54:53;102037.50;;;26.06;56.67
41513;BME280;27244;59.940;30.280;2023-08-17T10:57:27;102036.63;;;26.09;56.07
41513;BME280;27244;59.940;30.280;2023-08-17T11:00:15;102039.69;;;26.21;56.05
41513;BME280;27244;59.940;30.280;2023-08-17T11:02:45;102033.13;;;26.01;56.19
41513;BME280;27244;59.940;30.280;2023-08-17T11:05:13;102032.34;;;26.01;56.30
41513;BME280;27244;59.940;30.280;2023-08-17T11:07:43;102029.19;;;25.95;56.10
41513;BME280;27244;59.940;30.280;2023-08-17T11:10:12;102050.78;;;26.09;56.43
41513;BME280;27244;59.940;30.280;2023-08-17T11:12:41;102056.81;;;26.11;56.02
41513;BME280;27244;59.940;30.280;2023-08-17T11:15:09;102044.75;;;26.07;56.23
41513;BME280;27244;59.940;30.280;2023-08-17T11:17:37;102020.59;;;26.02;56.33
41513;BME280;27244;59.940;30.280;2023-08-17T11:20:05;102039.06;;;26.10;56.19
41513;BME280;27244;59.940;30.280;2023-08-17T11:22:34;102030.75;;;26.00;56.14
41513;BME280;27244;59.940;30.280;2023-08-17T11:25:02;102038.66;;;26.08;56.47
41513;BME280;27244;59.940;30.280;2023-08-17T11:27:31;102045.50;;;26.11;56.30
41513;BME280;27244;59.940;30.280;2023-08-17T11:29:58;102038.25;;;26.10;56.40
41513;BME280;27244;59.940;30.280;2023-08-17T11:32:25;102026.19;;;26.06;56.30
41513;BME280;27244;59.940;30.280;2023-08-17T11:34:54;102041.81;;;26.14;56.08
41513;BME280;27244;59.940;30.280;2023-08-17T11:37:21;102047.88;;;26.12;56.54
41513;BME280;27244;59.940;30.280;2023-08-17T11:39:49;102046.66;;;26.13;56.23
41513;BME280;27244;59.940;30.280;2023-08-17T11:42:16;102045.91;;;26.09;56.35
41513;BME280;27244;59.940;30.280;2023-08-17T11:44:46;102035.19;;;26.01;56.21
41513;BME280;27244;59.940;30.280;2023-08-17T11:47:13;102049.56;;;26.10;56.41
41513;BME280;27244;59.940;30.280;2023-08-17T11:49:40;102041.56;;;26.05;56.19
41513;BME280;27244;59.940;30.280;2023-08-17T11:52:10;102049.19;;;26.08;55.90
41513;BME280;27244;59.940;30.280;2023-08-17T11:54:40;102049.50;;;26.13;56.40
41513;BME280;27244;59.940;30.280;2023-08-17T11:57:07;102055.22;;;26.10;56.15
41513;BME280;27244;59.940;30.280;2023-08-17T11:59:34;102064.84;;;26.12;56.29
41513;BME280;27244;59.940;30.280;2023-08-17T12:02:01;102077.78;;;26.13;56.10
41513;BME280;27244;59.940;30.280;2023-08-17T12:04:29;102077.84;;;26.10;56.14
41513;BME280;27244;59.940;30.280;2023-08-17T12:06:58;102077.34;;;26.15;56.27
41513;BME280;27244;59.940;30.280;2023-08-17T12:09:27;102073.09;;;26.03;56.54
41513;BME280;27244;59.940;30.280;2023-08-17T12:11:58;102071.44;;;26.06;56.25
41513;BME280;27244;59.940;30.280;2023-08-17T12:14:28;102052.28;;;25.93;56.13
41513;BME280;27244;59.940;30.280;2023-08-17T12:16:55;102064.84;;;26.12;56.47
41513;BME280;27244;59.940;30.280;2023-08-17T12:19:24;102042.81;;;26.04;56.22
41513;BME280;27244;59.940;30.280;2023-08-17T12:21:52;102076.97;;;26.13;56.04
41513;BME280;27244;59.940;30.280;2023-08-17T12:24:19;102083.44;;;26.13;55.91
41513;BME280;27244;59.940;30.280;2023-08-17T12:26:48;102059.78;;;26.04;55.61
41513;BME280;27244;59.940;30.280;2023-08-17T12:29:15;102069.00;;;26.08;55.46
41513;BME280;27244;59.940;30.280;2023-08-17T12:31:42;102066.28;;;26.01;55.63
41513;BME280;27244;59.940;30.280;2023-08-17T12:34:09;102080.31;;;26.08;55.44
41513;BME280;27244;59.940;30.280;2023-08-17T12:36:36;102093.59;;;26.11;54.91
41513;BME280;27244;59.940;30.280;2023-08-17T12:39:04;102079.50;;;26.07;54.87
41513;BME280;27244;59.940;30.280;2023-08-17T12:41:32;102087.94;;;26.11;54.55
41513;BME280;27244;59.940;30.280;2023-08-17T12:44:00;102078.63;;;26.10;54.65
41513;BME280;27244;59.940;30.280;2023-08-17T12:46:27;102076.69;;;26.07;54.22